sensor_id;sensor_type;location;lat;lon;timestamp;P1;durP1;ratioP1;P2;durP2;ratioP2
75356;SDS011;63946;51.986;5.930;2024-02-23T00:02:24;2.80;;;0.55;;
75356;SDS011;63946;51.986;5.930;2024-02-23T00:04:53;1.98;;;0.75;;
75356;SDS011;63946;51.986;5.930;2024-02-23T00:07:22;2.72;;;1.00;;
75356;SDS011;63946;51.986;5.930;2024-02-23T00:09:51;2.03;;;0.80;;
75356;SDS011;63946;51.986;5.930;2024-02-23T00:12:20;5.30;;;0.90;;
75356;SDS011;63946;51.986;5.930;2024-02-23T00:14:49;2.22;;;0.80;;
75356;SDS011;63946;51.986;5.930;2024-02-23T00:17:20;2.75;;;0.80;;
75356;SDS011;63946;51.986;5.930;2024-02-23T00:19:49;2.72;;;0.73;;
75356;SDS011;63946;51.986;5.930;2024-02-23T00:22:21;2.85;;;0.93;;
75356;SDS011;63946;51.986;5.930;2024-02-23T00:24:51;1.48;;;0.80;;
75356;SDS011;63946;51.986;5.930;2024-02-23T00:27:20;3.67;;;0.82;;
75356;SDS011;63946;51.986;5.930;2024-02-23T00:29:49;3.53;;;1.05;;
75356;SDS011;63946;51.986;5.930;2024-02-23T00:32:18;2.20;;;0.93;;
75356;SDS011;63946;51.986;5.930;2024-02-23T00:34:47;3.25;;;1.05;;
75356;SDS011;63946;51.986;5.930;2024-02-23T00:37:18;3.55;;;1.00;;
75356;SDS011;63946;51.986;5.930;2024-02-23T00:39:49;2.05;;;0.80;;
75356;SDS011;63946;51.986;5.930;2024-02-23T00:42:18;3.63;;;1.10;;
75356;SDS011;63946;51.986;5.930;2024-02-23T00:44:47;1.88;;;0.73;;
75356;SDS011;63946;51.986;5.930;2024-02-23T00:47:16;9.25;;;1.50;;
75356;SDS011;63946;51.986;5.930;2024-02-23T00:49:48;2.60;;;1.10;;
75356;SDS011;63946;51.986;5.930;2024-02-23T00:52:17;4.05;;;1.05;;
75356;SDS011;63946;51.986;5.930;2024-02-23T00:54:46;4.50;;;1.23;;
75356;SDS011;63946;51.986;5.930;2024-02-23T00:57:15;3.92;;;0.98;;
75356;SDS011;63946;51.986;5.930;2024-02-23T00:59:47;2.47;;;1.20;;
75356;SDS011;63946;51.986;5.930;2024-02-23T01:02:16;1.90;;;0.70;;
75356;SDS011;63946;51.986;5.930;2024-02-23T01:04:45;0.82;;;0.60;;
75356;SDS011;63946;51.986;5.930;2024-02-23T01:07:14;2.50;;;0.63;;
75356;SDS011;63946;51.986;5.930;2024-02-23T01:09:43;2.88;;;1.08;;
75356;SDS011;63946;51.986;5.930;2024-02-23T01:12:12;2.72;;;0.88;;
75356;SDS011;63946;51.986;5.930;2024-02-23T01:14:43;1.83;;;1.20;;
75356;SDS011;63946;51.986;5.930;2024-02-23T01:17:16;3.13;;;1.60;;
75356;SDS011;63946;51.986;5.930;2024-02-23T01:19:45;2.28;;;1.30;;
75356;SDS011;63946;51.986;5.930;2024-02-23T01:22:13;7.25;;;2.42;;
75356;SDS011;63946;51.986;5.930;2024-02-23T01:24:44;6.53;;;2.10;;
75356;SDS011;63946;51.986;5.930;2024-02-23T01:27:14;4.03;;;1.98;;
75356;SDS011;63946;51.986;5.930;2024-02-23T01:29:44;5.60;;;2.30;;
75356;SDS011;63946;51.986;5.930;2024-02-23T01:32:13;4.75;;;2.15;;
75356;SDS011;63946;51.986;5.930;2024-02-23T01:34:41;4.30;;;2.17;;
75356;SDS011;63946;51.986;5.930;2024-02-23T01:37:10;5.90;;;2.80;;
75356;SDS011;63946;51.986;5.930;2024-02-23T01:39:40;5.93;;;2.55;;
75356;SDS011;63946;51.986;5.930;2024-02-23T01:42:09;4.57;;;2.50;;
75356;SDS011;63946;51.986;5.930;2024-02-23T01:44:41;3.80;;;2.20;;
75356;SDS011;63946;51.986;5.930;2024-02-23T01:47:10;3.30;;;1.77;;
75356;SDS011;63946;51.986;5.930;2024-02-23T01:49:41;5.10;;;1.92;;
75356;SDS011;63946;51.986;5.930;2024-02-23T01:52:10;3.63;;;2.05;;
75356;SDS011;63946;51.986;5.930;2024-02-23T01:54:40;4.15;;;1.85;;
75356;SDS011;63946;51.986;5.930;2024-02-23T01:57:09;3.35;;;1.70;;
75356;SDS011;63946;51.986;5.930;2024-02-23T01:59:39;4.15;;;1.42;;
75356;SDS011;63946;51.986;5.930;2024-02-23T02:02:09;5.82;;;1.63;;
75356;SDS011;63946;51.986;5.930;2024-02-23T02:04:38;7.38;;;1.73;;
75356;SDS011;63946;51.986;5.930;2024-02-23T02:07:07;4.47;;;2.22;;
75356;SDS011;63946;51.986;5.930;2024-02-23T02:09:36;4.78;;;1.30;;
75356;SDS011;63946;51.986;5.930;2024-02-23T02:12:05;8.05;;;1.80;;
75356;SDS011;63946;51.986;5.930;2024-02-23T02:14:34;3.50;;;1.38;;
75356;SDS011;63946;51.986;5.930;2024-02-23T02:17:03;3.58;;;1.23;;
75356;SDS011;63946;51.986;5.930;2024-02-23T02:19:32;3.67;;;1.15;;
75356;SDS011;63946;51.986;5.930;2024-02-23T02:22:01;4.75;;;1.20;;
75356;SDS011;63946;51.986;5.930;2024-02-23T02:24:33;4.57;;;1.42;;
75356;SDS011;63946;51.986;5.930;2024-02-23T02:27:01;3.13;;;0.98;;
75356;SDS011;63946;51.986;5.930;2024-02-23T02:29:35;5.80;;;1.02;;
75356;SDS011;63946;51.986;5.930;2024-02-23T02:32:04;5.43;;;1.42;;
75356;SDS011;63946;51.986;5.930;2024-02-23T02:34:35;2.70;;;1.20;;
75356;SDS011;63946;51.986;5.930;2024-02-23T02:37:04;3.95;;;0.90;;
75356;SDS011;63946;51.986;5.930;2024-02-23T02:39:34;3.90;;;0.93;;
75356;SDS011;63946;51.986;5.930;2024-02-23T02:42:03;3.03;;;1.00;;
75356;SDS011;63946;51.986;5.930;2024-02-23T02:44:32;4.82;;;1.08;;
75356;SDS011;63946;51.986;5.930;2024-02-23T02:47:01;2.28;;;0.77;;
75356;SDS011;63946;51.986;5.930;2024-02-23T02:49:30;2.72;;;1.05;;
75356;SDS011;63946;51.986;5.930;2024-02-23T02:51:59;4.47;;;0.93;;
75356;SDS011;63946;51.986;5.930;2024-02-23T02:54:28;5.57;;;1.20;;
75356;SDS011;63946;51.986;5.930;2024-02-23T02:59:27;2.97;;;1.23;;
75356;SDS011;63946;51.986;5.930;2024-02-23T03:01:57;3.45;;;0.93;;
75356;SDS011;63946;51.986;5.930;2024-02-23T03:04:32;6.68;;;1.33;;
75356;SDS011;63946;51.986;5.930;2024-02-23T03:07:01;5.68;;;1.13;;
75356;SDS011;63946;51.986;5.930;2024-02-23T03:09:30;4.10;;;1.30;;
75356;SDS011;63946;51.986;5.930;2024-02-23T03:12:01;5.85;;;1.55;;
75356;SDS011;63946;51.986;5.930;2024-02-23T03:14:31;3.50;;;0.93;;
75356;SDS011;63946;51.986;5.930;2024-02-23T03:16:59;5.05;;;1.38;;
75356;SDS011;63946;51.986;5.930;2024-02-23T03:19:29;2.35;;;1.30;;
75356;SDS011;63946;51.986;5.930;2024-02-23T03:21:58;3.95;;;1.05;;
75356;SDS011;63946;51.986;5.930;2024-02-23T03:24:28;4.25;;;0.98;;
75356;SDS011;63946;51.986;5.930;2024-02-23T03:26:57;1.83;;;0.85;;
75356;SDS011;63946;51.986;5.930;2024-02-23T03:29:26;4.75;;;1.02;;
75356;SDS011;63946;51.986;5.930;2024-02-23T03:31:56;2.63;;;0.93;;
75356;SDS011;63946;51.986;5.930;2024-02-23T03:34:27;2.70;;;1.17;;
75356;SDS011;63946;51.986;5.930;2024-02-23T03:36:56;2.63;;;1.15;;
75356;SDS011;63946;51.986;5.930;2024-02-23T03:39:32;4.18;;;1.17;;
75356;SDS011;63946;51.986;5.930;2024-02-23T03:42:03;3.33;;;0.85;;
75356;SDS011;63946;51.986;5.930;2024-02-23T03:44:35;2.85;;;1.02;;
75356;SDS011;63946;51.986;5.930;2024-02-23T03:47:09;7.85;;;1.27;;
75356;SDS011;63946;51.986;5.930;2024-02-23T03:49:38;3.40;;;1.05;;
75356;SDS011;63946;51.986;5.930;2024-02-23T03:52:10;6.20;;;1.15;;
75356;SDS011;63946;51.986;5.930;2024-02-23T03:54:46;4.25;;;1.15;;
75356;SDS011;63946;51.986;5.930;2024-02-23T03:57:17;4.05;;;0.90;;
75356;SDS011;63946;51.986;5.930;2024-02-23T03:59:52;3.05;;;1.20;;
75356;SDS011;63946;51.986;5.930;2024-02-23T04:02:25;4.40;;;1.20;;
75356;SDS011;63946;51.986;5.930;2024-02-23T04:05:00;3.53;;;0.82;;
75356;SDS011;63946;51.986;5.930;2024-02-23T04:07:33;4.88;;;1.02;;
75356;SDS011;63946;51.986;5.930;2024-02-23T04:10:08;3.00;;;1.02;;
75356;SDS011;63946;51.986;5.930;2024-02-23T04:12:51;6.18;;;1.02;;
75356;SDS011;63946;51.986;5.930;2024-02-23T04:15:24;4.85;;;1.70;;
75356;SDS011;63946;51.986;5.930;2024-02-23T04:18:38;3.08;;;1.05;;
75356;SDS011;63946;51.986;5.930;2024-02-23T04:21:07;3.22;;;1.48;;
75356;SDS011;63946;51.986;5.930;2024-02-23T04:23:53;2.72;;;0.90;;
75356;SDS011;63946;51.986;5.930;2024-02-23T04:26:23;4.75;;;1.20;;
75356;SDS011;63946;51.986;5.930;2024-02-23T04:28:54;6.30;;;1.02;;
75356;SDS011;63946;51.986;5.930;2024-02-23T04:34:21;3.70;;;1.25;;
75356;SDS011;63946;51.986;5.930;2024-02-23T04:40:17;3.72;;;1.42;;
75356;SDS011;63946;51.986;5.930;2024-02-23T04:42:47;4.18;;;1.45;;
75356;SDS011;63946;51.986;5.930;2024-02-23T04:45:23;6.38;;;1.42;;
75356;SDS011;63946;51.986;5.930;2024-02-23T04:48:01;4.72;;;1.30;;
75356;SDS011;63946;51.986;5.930;2024-02-23T04:50:35;4.35;;;1.30;;
75356;SDS011;63946;51.986;5.930;2024-02-23T04:53:07;6.15;;;1.13;;
75356;SDS011;63946;51.986;5.930;2024-02-23T04:55:40;4.38;;;1.42;;
75356;SDS011;63946;51.986;5.930;2024-02-23T04:58:11;3.47;;;1.15;;
75356;SDS011;63946;51.986;5.930;2024-02-23T05:00:52;3.25;;;1.08;;
75356;SDS011;63946;51.986;5.930;2024-02-23T05:03:46;3.22;;;1.13;;
75356;SDS011;63946;51.986;5.930;2024-02-23T05:06:33;3.67;;;1.00;;
75356;SDS011;63946;51.986;5.930;2024-02-23T05:13:11;9.80;;;2.00;;
75356;SDS011;63946;51.986;5.930;2024-02-23T05:15:56;5.93;;;1.20;;
75356;SDS011;63946;51.986;5.930;2024-02-23T05:18:37;4.85;;;1.15;;
75356;SDS011;63946;51.986;5.930;2024-02-23T05:21:26;5.43;;;1.65;;
75356;SDS011;63946;51.986;5.930;2024-02-23T05:24:00;7.07;;;1.27;;
75356;SDS011;63946;51.986;5.930;2024-02-23T05:26:51;2.97;;;1.17;;
75356;SDS011;63946;51.986;5.930;2024-02-23T05:29:46;3.88;;;1.10;;
75356;SDS011;63946;51.986;5.930;2024-02-23T05:32:41;5.68;;;1.20;;
75356;SDS011;63946;51.986;5.930;2024-02-23T05:35:46;3.30;;;1.10;;
75356;SDS011;63946;51.986;5.930;2024-02-23T05:38:31;4.57;;;1.30;;
75356;SDS011;63946;51.986;5.930;2024-02-23T05:50:26;5.22;;;1.23;;
75356;SDS011;63946;51.986;5.930;2024-02-23T05:53:31;4.47;;;1.23;;
75356;SDS011;63946;51.986;5.930;2024-02-23T05:56:12;4.15;;;1.10;;
75356;SDS011;63946;51.986;5.930;2024-02-23T05:58:54;4.40;;;1.13;;
75356;SDS011;63946;51.986;5.930;2024-02-23T06:01:33;5.18;;;1.35;;
75356;SDS011;63946;51.986;5.930;2024-02-23T06:04:30;5.40;;;1.52;;
75356;SDS011;63946;51.986;5.930;2024-02-23T06:17:21;4.88;;;1.33;;
75356;SDS011;63946;51.986;5.930;2024-02-23T06:21:00;4.18;;;1.30;;
75356;SDS011;63946;51.986;5.930;2024-02-23T06:24:34;11.05;;;2.30;;
75356;SDS011;63946;51.986;5.930;2024-02-23T06:27:45;4.43;;;1.38;;
75356;SDS011;63946;51.986;5.930;2024-02-23T06:30:23;7.07;;;1.23;;
75356;SDS011;63946;51.986;5.930;2024-02-23T06:36:56;4.72;;;1.33;;
75356;SDS011;63946;51.986;5.930;2024-02-23T06:40:24;4.15;;;1.52;;
75356;SDS011;63946;51.986;5.930;2024-02-23T06:43:49;5.53;;;1.80;;
75356;SDS011;63946;51.986;5.930;2024-02-23T06:46:48;8.30;;;1.40;;
75356;SDS011;63946;51.986;5.930;2024-02-23T06:49:29;5.47;;;1.52;;
75356;SDS011;63946;51.986;5.930;2024-02-23T06:55:25;6.43;;;1.42;;
75356;SDS011;63946;51.986;5.930;2024-02-23T06:58:39;6.68;;;1.25;;
75356;SDS011;63946;51.986;5.930;2024-02-23T07:05:13;5.50;;;1.20;;
75356;SDS011;63946;51.986;5.930;2024-02-23T07:08:09;5.75;;;1.38;;
75356;SDS011;63946;51.986;5.930;2024-02-23T07:17:05;3.22;;;1.17;;
75356;SDS011;63946;51.986;5.930;2024-02-23T07:27:35;6.47;;;1.15;;
75356;SDS011;63946;51.986;5.930;2024-02-23T07:37:52;5.68;;;1.33;;
75356;SDS011;63946;51.986;5.930;2024-02-23T07:41:01;4.78;;;1.95;;
75356;SDS011;63946;51.986;5.930;2024-02-23T08:09:55;5.88;;;1.40;;
75356;SDS011;63946;51.986;5.930;2024-02-23T10:04:09;4.70;;;1.20;;
75356;SDS011;63946;51.986;5.930;2024-02-23T10:31:10;3.47;;;1.52;;
75356;SDS011;63946;51.986;5.930;2024-02-23T15:50:29;3.67;;;1.10;;
75356;SDS011;63946;51.986;5.930;2024-02-23T16:28:01;3.42;;;1.20;;
75356;SDS011;63946;51.986;5.930;2024-02-23T16:41:30;2.70;;;0.80;;
75356;SDS011;63946;51.986;5.930;2024-02-23T16:54:54;2.78;;;0.88;;
75356;SDS011;63946;51.986;5.930;2024-02-23T16:57:36;3.38;;;1.40;;
75356;SDS011;63946;51.986;5.930;2024-02-23T17:07:32;4.13;;;1.20;;
75356;SDS011;63946;51.986;5.930;2024-02-23T17:10:30;5.25;;;1.10;;
75356;SDS011;63946;51.986;5.930;2024-02-23T17:13:36;6.22;;;1.48;;
75356;SDS011;63946;51.986;5.930;2024-02-23T17:19:23;5.47;;;1.02;;
75356;SDS011;63946;51.986;5.930;2024-02-23T17:22:16;3.60;;;1.10;;
75356;SDS011;63946;51.986;5.930;2024-02-23T17:24:52;3.40;;;1.00;;
75356;SDS011;63946;51.986;5.930;2024-02-23T17:27:29;3.78;;;1.35;;
75356;SDS011;63946;51.986;5.930;2024-02-23T17:30:09;4.40;;;1.17;;
75356;SDS011;63946;51.986;5.930;2024-02-23T17:33:08;4.13;;;1.60;;
75356;SDS011;63946;51.986;5.930;2024-02-23T17:35:50;3.17;;;1.00;;
75356;SDS011;63946;51.986;5.930;2024-02-23T17:38:24;2.88;;;0.93;;
75356;SDS011;63946;51.986;5.930;2024-02-23T17:40:53;4.40;;;1.30;;
75356;SDS011;63946;51.986;5.930;2024-02-23T17:43:33;3.50;;;1.13;;
75356;SDS011;63946;51.986;5.930;2024-02-23T17:46:16;2.42;;;0.90;;
75356;SDS011;63946;51.986;5.930;2024-02-23T17:48:45;2.42;;;1.05;;
75356;SDS011;63946;51.986;5.930;2024-02-23T17:51:14;2.50;;;1.45;;
75356;SDS011;63946;51.986;5.930;2024-02-23T17:53:51;4.13;;;1.10;;
75356;SDS011;63946;51.986;5.930;2024-02-23T18:03:28;3.20;;;1.13;;
75356;SDS011;63946;51.986;5.930;2024-02-23T18:06:44;4.10;;;1.10;;
75356;SDS011;63946;51.986;5.930;2024-02-23T18:09:52;3.03;;;1.00;;
75356;SDS011;63946;51.986;5.930;2024-02-23T18:13:07;3.88;;;1.08;;
75356;SDS011;63946;51.986;5.930;2024-02-23T18:20:08;5.18;;;1.35;;
75356;SDS011;63946;51.986;5.930;2024-02-23T18:37:39;3.20;;;1.15;;
75356;SDS011;63946;51.986;5.930;2024-02-23T18:48:25;3.20;;;1.10;;
75356;SDS011;63946;51.986;5.930;2024-02-23T18:51:29;2.75;;;1.73;;
75356;SDS011;63946;51.986;5.930;2024-02-23T18:54:19;4.63;;;1.20;;
75356;SDS011;63946;51.986;5.930;2024-02-23T19:04:18;3.78;;;1.55;;
75356;SDS011;63946;51.986;5.930;2024-02-23T19:07:19;2.80;;;1.05;;
75356;SDS011;63946;51.986;5.930;2024-02-23T19:10:23;6.03;;;1.30;;
75356;SDS011;63946;51.986;5.930;2024-02-23T19:13:45;3.55;;;1.20;;
75356;SDS011;63946;51.986;5.930;2024-02-23T19:16:44;2.80;;;1.38;;
75356;SDS011;63946;51.986;5.930;2024-02-23T19:19:47;2.50;;;1.20;;
75356;SDS011;63946;51.986;5.930;2024-02-23T19:29:37;3.55;;;0.75;;
75356;SDS011;63946;51.986;5.930;2024-02-23T19:32:51;2.38;;;0.80;;
75356;SDS011;63946;51.986;5.930;2024-02-23T19:36:05;2.03;;;0.88;;
75356;SDS011;63946;51.986;5.930;2024-02-23T19:39:00;2.28;;;0.80;;
75356;SDS011;63946;51.986;5.930;2024-02-23T19:42:00;4.15;;;1.10;;
75356;SDS011;63946;51.986;5.930;2024-02-23T19:47:50;2.58;;;1.13;;
75356;SDS011;63946;51.986;5.930;2024-02-23T19:50:42;3.55;;;1.30;;
75356;SDS011;63946;51.986;5.930;2024-02-23T19:53:40;3.67;;;1.60;;
